Time;durP1;ratioP1;P1;durP2;ratioP2;P2;SDS_P1;SDS_P2;PMS_P1;PMS_P2;Temp;Humidity;BMP_temperature;BMP_pressure;BME280_temperature;BME280_humidity;BME280_pressure;Samples;Min_cycle;Max_cycle;Signal;HPM_P1;HPM_P2
2021/12/08 18:17:47;;;;;;;17.85;3.35;;;;;;;;;;10473784;27;20617;-82
2021/12/08 18:22:49;;;;;;;12.32;2.75;;;;;;;;;;10445315;28;20029;-80
2021/12/08 18:27:50;;;;;;;29.42;4.30;;;;;;;;;;10389588;28;20064;-82
2021/12/08 18:32:51;;;;;;;6.78;2.92;;;;;;;;;;10363286;28;20033;-82
2021/12/08 18:37:54;;;;;;;4.45;2.45;;;;;;;;;;10393359;28;20041;-82
2021/12/08 18:42:54;;;;;;;12.80;3.67;;;;;;;;;;10344200;28;20029;-83
2021/12/08 18:47:55;;;;;;;10.07;3.55;;;;;;;;;;10360729;28;20037;-83
2021/12/08 18:52:55;;;;;;;8.23;3.22;;;;;;;;;;10419579;28;20414;-84
2021/12/08 18:57:56;;;;;;;14.57;3.47;;;;;;;;;;10439195;28;20140;-83
2021/12/08 19:02:57;;;;;;;12.23;3.47;;;;;;;;;;10448576;28;20454;-83
2021/12/08 19:07:59;;;;;;;9.35;2.95;;;;;;;;;;10448282;28;20029;-83
2021/12/08 19:13:01;;;;;;;11.80;3.85;;;;;;;;;;10425294;28;20029;-83
2021/12/08 19:18:02;;;;;;;10.88;3.15;;;;;;;;;;10459278;28;20045;-83
2021/12/08 19:23:07;;;;;;;7.63;3.83;;;;;;;;;;10470630;28;20048;-83
2021/12/08 19:28:08;;;;;;;9.05;3.28;;;;;;;;;;10410349;28;20045;-83
2021/12/08 19:33:11;;;;;;;14.35;3.42;;;;;;;;;;10412623;28;20056;-82
2021/12/08 19:38:16;;;;;;;8.00;2.50;;;;;;;;;;10411091;28;20025;-82
2021/12/08 19:43:17;;;;;;;3.83;2.33;;;;;;;;;;10405305;28;20387;-82
2021/12/08 19:48:20;;;;;;;4.78;2.28;;;;;;;;;;10405649;28;20041;-82
2021/12/08 19:53:20;;;;;;;5.30;2.30;;;;;;;;;;10421613;28;20065;-82
2021/12/08 19:58:21;;;;;;;8.20;2.35;;;;;;;;;;10397779;28;20057;-82
2021/12/08 20:03:25;;;;;;;10.77;2.55;;;;;;;;;;10413960;28;20044;-82
2021/12/08 20:08:26;;;;;;;11.25;1.70;;;;;;;;;;10423674;28;20026;-82
2021/12/08 20:13:27;;;;;;;6.40;2.10;;;;;;;;;;10403885;28;20050;-82
2021/12/08 20:18:27;;;;;;;7.03;2.20;;;;;;;;;;10400819;28;20037;-82
2021/12/08 20:23:28;;;;;;;6.67;2.27;;;;;;;;;;10417222;28;20466;-82
2021/12/08 20:28:28;;;;;;;5.70;2.10;;;;;;;;;;10412331;28;20526;-82
2021/12/08 20:33:29;;;;;;;6.20;1.70;;;;;;;;;;10416048;28;20017;-82
2021/12/08 20:38:29;;;;;;;5.50;2.00;;;;;;;;;;10414870;28;20862;-82
2021/12/08 20:43:29;;;;;;;4.28;2.08;;;;;;;;;;10426228;28;20061;-81
2021/12/08 20:48:30;;;;;;;6.50;1.65;;;;;;;;;;10410149;28;20045;-82
2021/12/08 20:53:30;;;;;;;5.33;2.07;;;;;;;;;;10397159;28;20022;-81
2021/12/08 20:58:32;;;;;;;3.22;1.52;;;;;;;;;;10389630;28;20471;-82
2021/12/08 21:03:32;;;;;;;3.05;1.95;;;;;;;;;;10413713;28;20232;-82
2021/12/08 21:08:34;;;;;;;21.15;2.45;;;;;;;;;;10401372;28;20029;-81
2021/12/08 21:13:34;;;;;;;10.82;2.60;;;;;;;;;;10406698;28;20077;-80
2021/12/08 21:18:38;;;;;;;4.75;1.58;;;;;;;;;;10419563;28;20467;-80
2021/12/08 21:23:38;;;;;;;3.58;1.80;;;;;;;;;;10418631;28;20072;-79
2021/12/08 21:28:39;;;;;;;6.90;2.17;;;;;;;;;;10400995;28;20049;-80
2021/12/08 21:33:42;;;;;;;5.57;1.60;;;;;;;;;;10390139;28;20088;-80
2021/12/08 21:38:44;;;;;;;6.18;1.70;;;;;;;;;;10408410;28;20447;-80
2021/12/08 21:43:48;;;;;;;4.50;1.88;;;;;;;;;;10405823;28;20061;-81
2021/12/08 21:48:50;;;;;;;4.00;1.65;;;;;;;;;;10393964;28;20095;-80
2021/12/08 21:53:50;;;;;;;2.10;1.55;;;;;;;;;;10391366;28;20109;-80
2021/12/08 21:58:52;;;;;;;3.92;1.80;;;;;;;;;;10391954;28;20120;-80
2021/12/08 22:03:54;;;;;;;6.68;2.20;;;;;;;;;;10391810;28;20164;-81
2021/12/08 22:08:54;;;;;;;2.47;1.52;;;;;;;;;;10394185;28;20036;-80
2021/12/08 22:13:55;;;;;;;4.32;1.80;;;;;;;;;;10400748;28;20053;-80
2021/12/08 22:18:55;;;;;;;4.00;1.90;;;;;;;;;;10426417;28;20029;-80
2021/12/08 22:23:56;;;;;;;3.37;2.00;;;;;;;;;;10376162;28;20184;-80
2021/12/08 22:28:56;;;;;;;8.73;1.90;;;;;;;;;;10410418;28;20455;-80
2021/12/08 22:33:57;;;;;;;7.43;2.60;;;;;;;;;;10414071;28;20060;-81
2021/12/08 22:38:57;;;;;;;13.40;2.20;;;;;;;;;;10391872;28;20034;-77
2021/12/08 22:43:58;;;;;;;4.57;1.83;;;;;;;;;;10379789;28;20033;-81
2021/12/08 22:48:58;;;;;;;8.13;2.05;;;;;;;;;;10403871;28;20037;-78
2021/12/08 22:53:59;;;;;;;4.97;2.00;;;;;;;;;;10422324;28;20104;-81
2021/12/08 22:59:00;;;;;;;5.57;2.25;;;;;;;;;;10407677;28;20028;-78
2021/12/08 23:04:02;;;;;;;13.65;2.22;;;;;;;;;;10402376;28;20030;-80
2021/12/08 23:09:04;;;;;;;6.85;1.88;;;;;;;;;;10403851;28;20124;-79
2021/12/08 23:14:07;;;;;;;3.95;2.00;;;;;;;;;;10419366;28;20074;-80
2021/12/08 23:19:08;;;;;;;21.63;2.30;;;;;;;;;;10416838;28;20033;-78
2021/12/08 23:24:09;;;;;;;6.18;1.95;;;;;;;;;;10410770;28;20474;-79
2021/12/08 23:29:11;;;;;;;6.28;1.77;;;;;;;;;;10391853;28;20108;-79
2021/12/08 23:34:15;;;;;;;7.95;2.28;;;;;;;;;;10434845;28;20112;-78
2021/12/08 23:39:20;;;;;;;7.63;2.03;;;;;;;;;;10416736;28;20450;-81
2021/12/08 23:44:21;;;;;;;5.47;1.60;;;;;;;;;;10395355;28;20037;-80
2021/12/08 23:49:22;;;;;;;4.85;2.25;;;;;;;;;;10377793;28;20037;-81
2021/12/08 23:54:22;;;;;;;2.50;1.50;;;;;;;;;;10397031;28;20048;-79
2021/12/08 23:59:25;;;;;;;5.35;1.92;;;;;;;;;;10419761;28;20038;-81
